Time;durP1;ratioP1;P1;durP2;ratioP2;P2;SDS_P1;SDS_P2;PMS_P1;PMS_P2;Temp;Humidity;BMP_temperature;BMP_pressure;BME280_temperature;BME280_humidity;BME280_pressure;Samples;Min_cycle;Max_cycle;Signal;HPM_P1;HPM_P2
2023/07/10 00:02:09;;;;;;;2.67;2.10;;;;;;;21.54;43.95;100729.88;5043941;28;20566;-68
2023/07/10 00:04:39;;;;;;;6.13;2.47;;;;;;;21.51;44.11;100730.00;5051189;28;20198;-67
2023/07/10 00:07:07;;;;;;;2.53;1.95;;;;;;;21.49;44.48;100726.56;5049714;28;20561;-63
2023/07/10 00:09:35;;;;;;;4.35;2.22;;;;;;;21.51;44.70;100724.75;5049546;28;20570;-67
2023/07/10 00:12:03;;;;;;;2.58;2.10;;;;;;;21.52;44.99;100723.81;5045237;28;20622;-65
2023/07/10 00:14:33;;;;;;;2.40;2.20;;;;;;;21.52;45.18;100721.19;5040140;28;20202;-63
2023/07/10 00:17:01;;;;;;;2.75;1.98;;;;;;;21.53;45.07;100722.88;5042321;28;20206;-63
2023/07/10 00:19:30;;;;;;;2.50;2.13;;;;;;;21.52;45.00;100718.56;5042289;28;20313;-64
2023/07/10 00:21:59;;;;;;;2.65;1.85;;;;;;;21.54;45.24;100718.50;5051888;28;20259;-63
2023/07/10 00:24:27;;;;;;;4.13;2.13;;;;;;;21.53;45.61;100717.66;5035190;28;20637;-63
2023/07/10 00:26:55;;;;;;;11.55;2.70;;;;;;;21.53;45.45;100720.28;5046305;28;20635;-64
2023/07/10 00:29:27;;;;;;;2.35;1.98;;;;;;;21.53;45.53;100712.41;5035742;28;20689;-64
2023/07/10 00:31:55;;;;;;;4.07;2.42;;;;;;;21.47;45.56;100707.47;5034082;28;20217;-63
2023/07/10 00:34:25;;;;;;;3.05;2.30;;;;;;;21.38;45.56;100711.34;5048818;28;20605;-64
2023/07/10 00:36:53;;;;;;;3.15;2.10;;;;;;;21.36;45.87;100713.19;5043037;28;20218;-65
2023/07/10 00:39:25;;;;;;;3.95;2.53;;;;;;;21.31;46.18;100706.41;5049988;28;20240;-69
2023/07/10 00:41:58;;;;;;;2.35;1.90;;;;;;;21.25;45.71;100699.69;5051803;28;20666;-63
2023/07/10 00:44:33;;;;;;;2.45;2.00;;;;;;;21.20;45.81;100709.53;5043806;28;20206;-63
2023/07/10 00:47:07;;;;;;;2.33;1.98;;;;;;;21.15;46.10;100707.13;5043125;28;20247;-64
2023/07/10 00:49:43;;;;;;;4.78;2.13;;;;;;;21.14;46.08;100707.19;5049680;28;20204;-63
2023/07/10 00:52:16;;;;;;;3.47;2.28;;;;;;;21.12;46.17;100706.41;5046446;28;20229;-63
2023/07/10 00:54:48;;;;;;;3.45;2.30;;;;;;;21.10;46.38;100708.22;5048881;28;20209;-65
2023/07/10 00:57:19;;;;;;;3.38;2.00;;;;;;;21.09;46.55;100712.63;5046542;28;20212;-66
2023/07/10 00:59:47;;;;;;;5.32;2.17;;;;;;;21.05;46.64;100699.72;5050308;28;20250;-65
2023/07/10 01:02:25;;;;;;;3.42;2.17;;;;;;;21.04;46.53;100704.13;5043120;28;20197;-64
2023/07/10 01:05:02;;;;;;;2.72;2.42;;;;;;;21.02;46.34;100694.63;5047611;28;20304;-64
2023/07/10 01:07:34;;;;;;;4.60;2.25;;;;;;;21.03;46.50;100701.59;5042993;28;20542;-64
2023/07/10 01:10:08;;;;;;;2.28;2.08;;;;;;;21.04;46.94;100698.88;5051060;28;20229;-64
2023/07/10 01:12:37;;;;;;;2.42;2.22;;;;;;;21.06;46.89;100707.53;5048670;28;20202;-63
2023/07/10 01:15:06;;;;;;;2.22;2.03;;;;;;;21.08;47.13;100702.22;5049984;28;20202;-64
2023/07/10 01:17:35;;;;;;;3.00;2.35;;;;;;;21.09;46.94;100703.91;5050960;28;20237;-65
2023/07/10 01:20:31;;;;;;;4.00;2.05;;;;;;;21.05;47.22;100705.81;5051078;28;20767;-63
2023/07/10 01:23:01;;;;;;;2.60;2.28;;;;;;;21.07;47.08;100698.75;5045332;28;20589;-65
2023/07/10 01:25:36;;;;;;;4.28;2.30;;;;;;;21.05;47.33;100703.19;5032800;28;20230;-64
2023/07/10 01:28:09;;;;;;;2.83;2.28;;;;;;;21.04;47.30;100704.13;5048915;28;20286;-64
2023/07/10 01:30:42;;;;;;;5.97;2.10;;;;;;;21.02;47.42;100700.69;5049900;28;20193;-64
2023/07/10 01:33:16;;;;;;;2.97;2.25;;;;;;;21.02;47.41;100700.69;5049356;28;20213;-64
2023/07/10 01:35:47;;;;;;;5.13;2.20;;;;;;;21.00;47.62;100705.19;5041063;28;20576;-63
2023/07/10 01:38:16;;;;;;;2.35;2.05;;;;;;;20.97;47.73;100703.53;5044423;28;20603;-64
2023/07/10 01:40:54;;;;;;;2.35;2.15;;;;;;;20.93;47.85;100703.75;5053750;28;20233;-65
2023/07/10 01:43:22;;;;;;;3.20;2.10;;;;;;;20.90;47.75;100698.63;5054243;28;20220;-64
2023/07/10 01:45:50;;;;;;;2.45;2.08;;;;;;;20.88;48.00;100703.97;5048524;28;20210;-66
2023/07/10 01:48:23;;;;;;;2.85;1.98;;;;;;;20.87;47.70;100704.00;5054707;28;20198;-65
2023/07/10 01:50:52;;;;;;;3.33;2.22;;;;;;;20.87;47.87;100701.38;5050398;28;20198;-64
2023/07/10 01:53:22;;;;;;;3.88;2.17;;;;;;;20.82;48.12;100708.59;5054263;28;20979;-65
2023/07/10 01:55:51;;;;;;;4.22;2.65;;;;;;;20.84;48.22;100706.75;5058225;28;20194;-62
2023/07/10 01:58:19;;;;;;;2.85;2.25;;;;;;;20.83;48.28;100710.28;5054465;28;20202;-64
2023/07/10 02:00:47;;;;;;;3.15;2.20;;;;;;;20.78;48.11;100704.41;5052652;28;20218;-64
2023/07/10 02:03:15;;;;;;;2.20;2.00;;;;;;;20.79;48.14;100701.72;5044268;28;20627;-65
2023/07/10 02:05:43;;;;;;;3.13;2.40;;;;;;;20.76;48.16;100701.84;5039282;28;20241;-64
2023/07/10 02:08:11;;;;;;;2.70;2.08;;;;;;;20.67;48.12;100683.94;5050775;28;20210;-65
2023/07/10 02:10:40;;;;;;;3.97;2.40;;;;;;;20.70;48.49;100691.66;5052739;28;20249;-64
2023/07/10 02:13:12;;;;;;;4.78;2.33;;;;;;;20.66;48.67;100683.09;5050878;28;20206;-64
2023/07/10 02:15:41;;;;;;;4.72;2.50;;;;;;;20.62;48.83;100678.91;5051937;28;20206;-64
2023/07/10 02:18:09;;;;;;;2.45;2.13;;;;;;;20.60;48.87;100678.09;5054094;28;20206;-63
2023/07/10 02:20:39;;;;;;;2.70;2.13;;;;;;;20.56;49.10;100665.22;5053911;28;20218;-64
2023/07/10 02:23:07;;;;;;;2.95;2.40;;;;;;;20.54;49.07;100660.03;5047269;28;20294;-63
2023/07/10 02:25:35;;;;;;;6.22;2.50;;;;;;;20.54;49.43;100667.03;5045683;28;20222;-64
2023/07/10 02:28:06;;;;;;;4.50;2.47;;;;;;;20.53;49.46;100670.56;5041992;28;20545;-65
2023/07/10 02:30:36;;;;;;;5.72;2.45;;;;;;;20.50;49.65;100679.41;5047551;28;20281;-64
2023/07/10 02:33:05;;;;;;;3.58;2.50;;;;;;;20.50;49.84;100682.03;5048283;28;20746;-63
2023/07/10 02:35:33;;;;;;;2.92;2.65;;;;;;;20.47;49.62;100683.00;5052386;28;20263;-65
2023/07/10 02:38:01;;;;;;;7.90;3.00;;;;;;;20.43;49.77;100681.38;5052930;28;20198;-65
2023/07/10 02:40:29;;;;;;;3.72;2.42;;;;;;;20.40;49.89;100676.31;5054148;28;20210;-64
2023/07/10 02:42:57;;;;;;;3.33;2.60;;;;;;;20.35;49.87;100685.25;5044023;28;20198;-63
2023/07/10 02:45:27;;;;;;;2.70;2.05;;;;;;;20.34;50.28;100686.19;5052010;28;20205;-66
2023/07/10 02:47:55;;;;;;;5.55;2.30;;;;;;;20.32;50.52;100677.53;5046303;28;20711;-65
2023/07/10 02:50:23;;;;;;;3.28;2.25;;;;;;;20.31;50.10;100679.28;5045639;28;20248;-65
2023/07/10 02:52:51;;;;;;;9.88;2.45;;;;;;;20.29;50.33;100686.38;5052867;28;20237;-64
2023/07/10 02:55:19;;;;;;;4.03;2.35;;;;;;;20.30;50.58;100685.44;5047362;28;20557;-64
2023/07/10 02:57:47;;;;;;;6.50;2.35;;;;;;;20.31;50.25;100687.16;5049327;28;20210;-64
2023/07/10 03:00:16;;;;;;;2.47;2.00;;;;;;;20.35;50.15;100683.50;5051938;28;20598;-66
2023/07/10 03:02:45;;;;;;;2.40;1.88;;;;;;;20.34;50.24;100679.19;5050658;28;20205;-64
2023/07/10 03:05:13;;;;;;;4.40;2.47;;;;;;;20.36;49.94;100679.09;5046226;28;20203;-66
2023/07/10 03:07:41;;;;;;;4.85;2.60;;;;;;;20.38;50.12;100687.75;5052111;28;20202;-65
2023/07/10 03:10:10;;;;;;;3.45;2.13;;;;;;;20.39;50.00;100692.06;5048780;28;20248;-63
2023/07/10 03:12:38;;;;;;;3.45;2.60;;;;;;;20.39;50.24;100694.69;5053507;28;20198;-63
2023/07/10 03:15:08;;;;;;;3.40;2.25;;;;;;;20.40;50.25;100697.25;5049692;28;20603;-63
2023/07/10 03:17:36;;;;;;;5.40;2.67;;;;;;;20.41;49.95;100698.94;5043095;28;20237;-63
2023/07/10 03:20:07;;;;;;;4.03;2.85;;;;;;;20.43;50.49;100693.63;5052832;28;20225;-66
2023/07/10 03:22:34;;;;;;;3.22;2.15;;;;;;;20.46;50.17;100699.59;5051382;28;20198;-64
2023/07/10 03:25:03;;;;;;;3.92;2.80;;;;;;;20.50;50.03;100695.97;5033452;28;20661;-64
2023/07/10 03:27:31;;;;;;;4.85;2.45;;;;;;;20.51;50.10;100694.22;5032901;28;20246;-63
2023/07/10 03:29:59;;;;;;;2.97;2.67;;;;;;;20.54;50.01;100691.44;5046867;28;20202;-65
2023/07/10 03:32:27;;;;;;;4.50;2.15;;;;;;;20.55;50.23;100694.94;5031075;28;20661;-64
2023/07/10 03:34:57;;;;;;;3.30;2.40;;;;;;;20.56;50.13;100688.78;5039018;28;20573;-63
2023/07/10 03:37:26;;;;;;;4.03;2.75;;;;;;;20.57;50.16;100688.69;5052925;28;20302;-65
2023/07/10 03:39:54;;;;;;;7.45;3.08;;;;;;;20.59;50.26;100693.88;5051756;28;20213;-64
2023/07/10 03:42:22;;;;;;;2.60;2.33;;;;;;;20.58;50.41;100694.78;5052741;28;20206;-64
2023/07/10 03:44:50;;;;;;;4.20;2.28;;;;;;;20.63;50.62;100698.91;5049612;28;20210;-65
2023/07/10 03:47:18;;;;;;;2.83;2.53;;;;;;;20.68;50.53;100693.47;5052853;28;20741;-63
2023/07/10 03:49:46;;;;;;;4.43;2.60;;;;;;;20.73;50.58;100692.38;5051172;28;20351;-66
2023/07/10 03:52:14;;;;;;;11.70;3.55;;;;;;;20.79;50.45;100693.00;5045160;28;20601;-64
2023/07/10 03:54:44;;;;;;;6.57;2.92;;;;;;;20.84;50.47;100693.66;5054135;28;20244;-66
2023/07/10 03:57:11;;;;;;;6.88;2.45;;;;;;;20.90;50.61;100693.41;5039672;28;20201;-64
2023/07/10 03:59:39;;;;;;;5.95;3.30;;;;;;;20.95;50.40;100694.03;5051992;28;20297;-64
2023/07/10 04:02:07;;;;;;;6.43;2.97;;;;;;;21.01;50.27;100698.16;5047367;28;20316;-66
2023/07/10 04:04:36;;;;;;;6.60;3.25;;;;;;;21.05;50.30;100695.34;5042301;28;20557;-65
2023/07/10 04:07:04;;;;;;;7.80;3.28;;;;;;;21.17;50.35;100699.16;5048112;28;20205;-63
2023/07/10 04:09:32;;;;;;;6.18;3.20;;;;;;;21.34;49.97;100701.06;5048636;28;20236;-64
2023/07/10 04:12:01;;;;;;;6.30;3.17;;;;;;;21.46;49.54;100701.34;5046827;28;20210;-65
2023/07/10 04:14:29;;;;;;;4.55;3.03;;;;;;;21.56;49.12;100709.66;5051174;28;20206;-65
2023/07/10 04:16:58;;;;;;;4.25;3.28;;;;;;;21.64;49.17;100698.78;5048316;28;20206;-66
2023/07/10 04:19:26;;;;;;;5.47;2.92;;;;;;;21.76;48.82;100713.09;5038427;28;20633;-65
2023/07/10 04:21:54;;;;;;;7.07;3.13;;;;;;;21.83;48.71;100709.25;5050162;28;20210;-64
2023/07/10 04:24:22;;;;;;;5.57;3.40;;;;;;;21.90;48.64;100706.25;5045379;28;20608;-64
2023/07/10 04:26:51;;;;;;;5.03;3.05;;;;;;;22.06;48.54;100703.78;5048470;28;20256;-64
2023/07/10 04:29:20;;;;;;;5.50;3.40;;;;;;;22.26;47.69;100707.22;5047001;28;20573;-63
2023/07/10 04:31:49;;;;;;;4.45;3.10;;;;;;;22.46;47.23;100704.47;5050942;28;20202;-65
2023/07/10 04:34:17;;;;;;;5.25;3.30;;;;;;;22.57;46.83;100710.03;5046527;28;20237;-63
2023/07/10 04:36:45;;;;;;;6.78;3.10;;;;;;;22.68;46.45;100714.69;5050419;28;20210;-64
2023/07/10 04:39:13;;;;;;;6.53;2.97;;;;;;;22.83;46.34;100708.69;5041705;28;20621;-64
2023/07/10 04:41:43;;;;;;;3.90;3.05;;;;;;;23.07;45.82;100706.56;5051645;28;20207;-65
2023/07/10 04:44:11;;;;;;;4.57;3.15;;;;;;;23.33;45.03;100706.94;5045532;28;20209;-64
2023/07/10 04:46:41;;;;;;;5.22;3.20;;;;;;;23.53;44.16;100709.34;5048440;28;20197;-65
2023/07/10 04:49:09;;;;;;;6.03;3.25;;;;;;;23.72;43.18;100711.84;5045840;28;20642;-64
2023/07/10 04:51:37;;;;;;;6.47;3.17;;;;;;;23.88;42.60;100709.19;5042818;28;20199;-66
2023/07/10 04:54:05;;;;;;;4.43;2.60;;;;;;;23.96;42.32;100717.50;5044605;28;20199;-65
2023/07/10 04:56:33;;;;;;;5.25;2.92;;;;;;;23.96;41.86;100714.88;5051330;28;20759;-64
2023/07/10 04:59:01;;;;;;;3.53;2.83;;;;;;;24.01;41.47;100718.09;5050504;28;20297;-64
2023/07/10 05:01:33;;;;;;;7.15;3.58;;;;;;;24.15;41.34;100721.72;5041655;28;20217;-65
2023/07/10 05:04:03;;;;;;;4.25;2.60;;;;;;;24.36;41.36;100720.47;5047222;28;20290;-64
2023/07/10 05:06:32;;;;;;;4.82;2.90;;;;;;;24.64;40.86;100729.44;5045541;28;20568;-64
2023/07/10 05:09:00;;;;;;;5.10;2.38;;;;;;;24.97;40.31;100723.94;5043033;28;20205;-64
2023/07/10 05:11:29;;;;;;;3.45;2.70;;;;;;;25.24;39.56;100716.16;5048631;28;20202;-64
2023/07/10 05:13:58;;;;;;;6.32;2.80;;;;;;;25.76;38.65;100720.75;5050270;28;20197;-64
2023/07/10 05:16:26;;;;;;;8.38;2.80;;;;;;;26.31;38.18;100719.00;5047529;28;20229;-64
2023/07/10 05:18:55;;;;;;;3.72;2.75;;;;;;;26.49;37.41;100726.56;5041540;28;20214;-64
2023/07/10 05:21:24;;;;;;;2.88;2.15;;;;;;;26.26;37.61;100729.88;5040524;28;20245;-64
2023/07/10 05:23:52;;;;;;;2.80;2.45;;;;;;;25.87;38.12;100726.22;5045355;28;20210;-63
2023/07/10 05:26:20;;;;;;;4.15;2.60;;;;;;;25.57;38.25;100725.53;5032330;28;20240;-63
2023/07/10 05:28:48;;;;;;;4.65;2.50;;;;;;;25.25;38.55;100725.75;5038265;28;20206;-62
2023/07/10 05:31:16;;;;;;;4.68;2.50;;;;;;;26.39;37.76;100714.03;5048521;28;20562;-63
2023/07/10 05:33:48;;;;;;;3.72;2.08;;;;;;;27.19;36.52;100714.75;5044322;28;20242;-64
2023/07/10 05:36:16;;;;;;;4.15;2.67;;;;;;;28.70;33.17;100709.91;5048429;28;20202;-64
2023/07/10 05:38:48;;;;;;;7.03;2.63;;;;;;;29.58;30.94;100707.41;5049962;28;20202;-64
2023/07/10 05:41:16;;;;;;;6.38;2.42;;;;;;;30.01;30.82;100704.75;5047879;28;20218;-64
2023/07/10 05:43:45;;;;;;;7.38;2.63;;;;;;;29.66;30.53;100704.97;5048652;28;20657;-63
2023/07/10 05:46:13;;;;;;;4.60;2.25;;;;;;;29.72;31.12;100708.94;5034753;28;20669;-63
2023/07/10 05:48:41;;;;;;;6.40;2.40;;;;;;;29.20;30.95;100708.63;5040779;28;20241;-63
2023/07/10 05:51:09;;;;;;;6.50;2.40;;;;;;;29.63;31.50;100699.91;5045992;28;20206;-63
2023/07/10 05:53:39;;;;;;;3.50;2.13;;;;;;;30.85;29.31;100699.47;5050145;28;20584;-66
2023/07/10 05:56:09;;;;;;;2.47;1.65;;;;;;;31.16;28.44;100699.47;5044454;28;20715;-64
2023/07/10 05:58:40;;;;;;;4.00;2.33;;;;;;;32.28;26.81;100694.75;5049171;28;20576;-64
2023/07/10 06:01:10;;;;;;;3.72;1.83;;;;;;;33.65;24.66;100686.94;5047800;28;20241;-64
2023/07/10 06:03:38;;;;;;;4.50;2.00;;;;;;;34.89;23.26;100689.59;5044033;28;20228;-65
2023/07/10 06:06:07;;;;;;;7.65;2.65;;;;;;;36.16;21.30;100691.31;5049976;28;20639;-65
2023/07/10 06:08:36;;;;;;;6.07;2.22;;;;;;;37.16;20.45;100691.81;5048620;28;20276;-64
2023/07/10 06:11:06;;;;;;;3.83;2.13;;;;;;;37.78;19.97;100688.25;5049505;28;20256;-64
2023/07/10 06:13:35;;;;;;;2.95;2.17;;;;;;;37.47;19.90;100692.66;5042155;28;20215;-64
2023/07/10 06:16:06;;;;;;;5.13;2.10;;;;;;;37.18;20.38;100692.44;5048787;28;20209;-64
2023/07/10 06:18:36;;;;;;;4.38;2.80;;;;;;;37.54;19.75;100687.41;5044077;28;20230;-64
2023/07/10 06:21:04;;;;;;;4.97;2.50;;;;;;;38.29;19.19;100686.66;5042914;28;20198;-63
2023/07/10 06:23:32;;;;;;;7.60;3.35;;;;;;;38.46;18.22;100689.22;5035535;28;20304;-63
2023/07/10 06:26:01;;;;;;;3.47;3.00;;;;;;;39.05;18.16;100695.47;5045227;28;20250;-62
2023/07/10 06:28:31;;;;;;;3.90;3.25;;;;;;;40.04;17.10;100686.81;5035429;28;20248;-63
2023/07/10 06:31:02;;;;;;;11.43;3.80;;;;;;;40.57;16.47;100698.06;5039837;28;20255;-65
2023/07/10 06:33:32;;;;;;;7.18;3.88;;;;;;;40.58;16.40;100698.88;5041116;28;20202;-63
2023/07/10 06:36:00;;;;;;;5.68;3.78;;;;;;;39.70;16.69;100701.88;5040331;28;20558;-64
2023/07/10 06:38:29;;;;;;;6.05;3.50;;;;;;;38.32;17.95;100701.63;5039797;28;20198;-63
2023/07/10 06:40:57;;;;;;;5.53;3.50;;;;;;;36.53;19.15;100690.81;5053649;28;20213;-64
2023/07/10 06:43:25;;;;;;;3.85;2.97;;;;;;;35.21;20.75;100699.66;5044952;28;20581;-65
2023/07/10 06:45:55;;;;;;;5.47;2.30;;;;;;;33.45;22.45;100703.25;5043030;28;20206;-67
2023/07/10 06:48:25;;;;;;;5.28;2.20;;;;;;;32.34;24.14;100696.84;5042832;28;20202;-63
2023/07/10 06:50:55;;;;;;;5.68;2.70;;;;;;;32.50;24.54;100694.47;5047513;28;20210;-64
2023/07/10 06:53:25;;;;;;;8.23;2.53;;;;;;;32.99;23.74;100684.47;5042528;28;20249;-64
2023/07/10 06:55:57;;;;;;;7.18;2.63;;;;;;;33.73;22.55;100688.03;5051428;28;20210;-64
2023/07/10 06:58:26;;;;;;;4.43;2.50;;;;;;;34.57;21.77;100684.91;5040288;28;20716;-66
2023/07/10 07:00:55;;;;;;;6.72;2.70;;;;;;;36.50;19.84;100680.41;5043268;28;20210;-64
2023/07/10 07:03:24;;;;;;;6.88;2.60;;;;;;;38.58;18.22;100676.97;5047768;28;20553;-65
2023/07/10 07:05:53;;;;;;;4.47;2.90;;;;;;;40.50;15.94;100670.13;5049856;28;20236;-64
2023/07/10 07:08:22;;;;;;;8.32;2.97;;;;;;;41.90;15.11;100668.81;5048235;28;20233;-64
2023/07/10 07:10:53;;;;;;;7.22;3.38;;;;;;;42.50;14.09;100669.63;5042053;28;20249;-64
2023/07/10 07:13:22;;;;;;;7.45;3.20;;;;;;;42.31;14.40;100662.34;5047916;28;20213;-63
2023/07/10 07:15:50;;;;;;;10.13;3.28;;;;;;;42.61;14.33;100655.41;5052155;28;20202;-64
2023/07/10 07:18:18;;;;;;;7.93;3.63;;;;;;;43.31;13.67;100652.84;5048172;28;20278;-64
2023/07/10 07:20:48;;;;;;;6.97;3.33;;;;;;;43.75;13.67;100650.25;5044624;28;20659;-64
2023/07/10 07:23:17;;;;;;;13.30;4.13;;;;;;;44.18;12.87;100653.00;5045972;28;20224;-63
2023/07/10 07:25:45;;;;;;;6.38;3.50;;;;;;;44.40;12.75;100645.28;5032246;28;20241;-65
2023/07/10 07:28:13;;;;;;;3.80;2.55;;;;;;;44.76;12.87;100646.38;5045147;28;20208;-65
2023/07/10 07:30:47;;;;;;;7.18;2.85;;;;;;;44.71;12.21;100641.63;5047231;28;20213;-66
2023/07/10 07:33:17;;;;;;;19.90;3.92;;;;;;;44.13;12.91;100642.81;5039647;28;20267;-64
2023/07/10 07:35:45;;;;;;;8.15;2.53;;;;;;;44.32;12.45;100648.31;5043107;28;20201;-65
2023/07/10 07:38:14;;;;;;;4.80;2.10;;;;;;;44.59;12.54;100648.81;5041795;28;20202;-62
2023/07/10 07:40:43;;;;;;;6.88;2.55;;;;;;;44.80;12.75;100639.41;5043875;28;20680;-62
2023/07/10 07:43:11;;;;;;;3.20;2.10;;;;;;;45.25;12.08;100636.28;5045621;28;20217;-61
2023/07/10 07:45:39;;;;;;;3.90;2.03;;;;;;;45.47;11.90;100633.91;5051275;28;20208;-61
2023/07/10 07:48:07;;;;;;;5.10;2.03;;;;;;;44.82;12.00;100632.69;5046503;28;20255;-62
2023/07/10 07:50:35;;;;;;;5.22;1.80;;;;;;;43.94;12.98;100630.28;5043206;28;20213;-62
2023/07/10 07:53:03;;;;;;;10.07;2.42;;;;;;;43.14;13.05;100638.94;5046939;28;20208;-63
2023/07/10 07:55:32;;;;;;;4.95;1.80;;;;;;;42.30;13.78;100639.84;5047956;28;20223;-62
2023/07/10 07:58:00;;;;;;;3.63;1.50;;;;;;;41.46;14.26;100640.44;5044248;28;20220;-63
2023/07/10 08:00:28;;;;;;;2.72;1.65;;;;;;;40.32;15.16;100633.69;5044642;28;20687;-64
2023/07/10 08:02:57;;;;;;;3.45;1.80;;;;;;;38.40;16.60;100631.56;5036811;28;20574;-62
2023/07/10 08:05:25;;;;;;;7.60;1.90;;;;;;;36.32;18.23;100634.94;5046953;28;20221;-63
2023/07/10 08:08:04;;;;;;;3.92;2.10;;;;;;;34.65;20.50;100627.91;5034533;28;20260;-66
2023/07/10 08:10:35;;;;;;;2.33;2.13;;;;;;;33.54;22.21;100640.91;5042551;28;20205;-62
2023/07/10 08:13:04;;;;;;;4.57;1.80;;;;;;;32.57;23.40;100636.88;5049820;28;20197;-62
2023/07/10 08:15:32;;;;;;;2.30;1.80;;;;;;;31.73;24.07;100637.50;5040644;28;20213;-62
2023/07/10 08:18:01;;;;;;;3.05;2.20;;;;;;;31.10;24.79;100639.59;5047400;28;20205;-62
2023/07/10 08:20:29;;;;;;;3.92;2.13;;;;;;;30.64;26.11;100640.13;5050053;28;20631;-64
2023/07/10 08:22:57;;;;;;;2.42;2.10;;;;;;;30.17;26.84;100635.22;5045838;28;20215;-62
2023/07/10 08:25:25;;;;;;;3.60;2.03;;;;;;;29.90;27.93;100632.16;5046054;28;20213;-62
2023/07/10 08:27:55;;;;;;;2.40;2.20;;;;;;;29.70;27.70;100628.53;5032008;28;20319;-62
2023/07/10 08:30:23;;;;;;;2.67;2.28;;;;;;;29.56;27.87;100634.94;5038550;28;20238;-63
2023/07/10 08:32:52;;;;;;;7.05;2.63;;;;;;;29.50;28.33;100635.47;5039112;28;20214;-61
2023/07/10 08:35:21;;;;;;;5.15;2.30;;;;;;;29.35;28.81;100625.13;5048372;28;20571;-62
2023/07/10 08:37:50;;;;;;;3.97;2.28;;;;;;;29.19;29.11;100622.00;5036777;28;20658;-61
2023/07/10 08:40:26;;;;;;;3.28;1.88;;;;;;;29.12;29.08;100628.75;5033469;28;20209;-61
2023/07/10 08:42:55;;;;;;;3.40;2.30;;;;;;;28.97;29.62;100632.59;5045320;28;20214;-61
2023/07/10 08:45:34;;;;;;;3.95;2.00;;;;;;;28.86;29.64;100630.81;5041519;28;20202;-64
2023/07/10 08:48:16;;;;;;;2.30;2.10;;;;;;;28.78;29.81;100623.44;5031075;28;20293;-62
2023/07/10 08:50:47;;;;;;;4.40;1.77;;;;;;;28.77;30.04;100621.78;5031752;28;20230;-62
2023/07/10 08:53:20;;;;;;;2.03;1.85;;;;;;;28.49;30.22;100628.38;5040019;28;20198;-61
2023/07/10 08:55:57;;;;;;;4.50;2.22;;;;;;;28.31;30.89;100625.28;5032763;28;20206;-61
2023/07/10 08:58:34;;;;;;;2.15;1.73;;;;;;;28.18;30.92;100613.97;5034499;28;20235;-61
2023/07/10 09:01:05;;;;;;;4.10;1.70;;;;;;;27.87;32.04;100621.59;5039769;28;20336;-62
2023/07/10 09:03:40;;;;;;;5.00;2.20;;;;;;;27.88;31.63;100623.28;5033679;28;20218;-62
2023/07/10 09:06:18;;;;;;;2.65;1.70;;;;;;;28.05;31.10;100615.84;5043320;28;20206;-63
2023/07/10 09:08:48;;;;;;;1.60;1.50;;;;;;;28.22;30.97;100612.75;5043131;28;20225;-63
2023/07/10 09:11:18;;;;;;;3.55;1.90;;;;;;;28.33;30.30;100611.94;5034441;28;20209;-62
2023/07/10 09:13:55;;;;;;;2.83;1.85;;;;;;;28.40;30.44;100608.72;5049643;28;20596;-62
2023/07/10 09:16:23;;;;;;;5.13;1.60;;;;;;;28.46;30.08;100611.84;5039635;28;20229;-62
2023/07/10 09:18:56;;;;;;;3.60;1.67;;;;;;;28.31;29.99;100604.09;5038073;28;20576;-63
2023/07/10 09:21:29;;;;;;;3.58;1.80;;;;;;;28.25;30.68;100612.53;5035467;28;20284;-62
2023/07/10 09:23:57;;;;;;;3.70;2.30;;;;;;;28.35;30.38;100602.91;5037332;28;20281;-61
2023/07/10 09:26:28;;;;;;;3.83;2.00;;;;;;;28.33;29.62;100599.53;5030560;28;20261;-63
2023/07/10 09:29:14;;;;;;;2.25;1.60;;;;;;;28.37;29.62;100602.78;5033044;28;20216;-63
2023/07/10 09:31:50;;;;;;;3.90;1.80;;;;;;;28.49;29.35;100608.97;5040311;28;20206;-63
2023/07/10 09:34:22;;;;;;;2.85;1.63;;;;;;;28.57;28.99;100604.78;5039450;28;20197;-63
2023/07/10 09:36:51;;;;;;;1.70;1.60;;;;;;;28.71;28.43;100589.56;5035206;28;20228;-63
2023/07/10 09:39:20;;;;;;;2.20;1.63;;;;;;;28.78;28.48;100593.44;5038032;28;20218;-61
2023/07/10 09:41:49;;;;;;;1.73;1.50;;;;;;;28.65;28.76;100598.88;5029376;28;20210;-62
2023/07/10 09:44:20;;;;;;;2.42;1.70;;;;;;;28.60;28.58;100590.41;5042743;28;20635;-61
2023/07/10 09:46:50;;;;;;;3.88;1.80;;;;;;;28.64;28.44;100589.22;5043456;28;20213;-62
2023/07/10 09:49:21;;;;;;;3.13;1.70;;;;;;;28.57;28.43;100594.19;5037155;28;20293;-65
2023/07/10 09:51:56;;;;;;;2.47;1.63;;;;;;;28.38;28.80;100589.44;5034109;28;20197;-62
2023/07/10 09:54:25;;;;;;;2.45;1.50;;;;;;;28.47;28.76;100584.41;5048420;28;20301;-63
2023/07/10 09:56:54;;;;;;;3.45;1.50;;;;;;;28.79;28.11;100580.03;5041359;28;20386;-63
2023/07/10 09:59:27;;;;;;;1.75;1.60;;;;;;;29.19;27.13;100584.00;5032281;28;20621;-63
2023/07/10 10:01:55;;;;;;;2.33;1.70;;;;;;;29.55;25.91;100580.16;5034704;28;20195;-63
2023/07/10 10:04:26;;;;;;;1.88;1.40;;;;;;;30.12;25.54;100565.63;5034771;28;20268;-62
2023/07/10 10:07:01;;;;;;;2.03;1.50;;;;;;;30.77;24.42;100575.06;5036611;28;20237;-63
2023/07/10 10:09:30;;;;;;;3.50;1.60;;;;;;;31.58;23.95;100564.28;5046232;28;20288;-62
2023/07/10 10:12:03;;;;;;;1.77;1.30;;;;;;;32.94;22.58;100566.63;5038679;28;20207;-62
2023/07/10 10:14:41;;;;;;;2.30;1.50;;;;;;;34.02;20.53;100554.94;5040650;28;20227;-61
2023/07/10 10:17:16;;;;;;;2.70;1.40;;;;;;;34.97;18.82;100546.84;5046810;28;20746;-63
2023/07/10 10:19:48;;;;;;;3.33;1.70;;;;;;;35.85;18.48;100547.13;5043136;28;20568;-62
2023/07/10 10:22:17;;;;;;;2.33;1.33;;;;;;;36.30;16.27;100548.38;5050132;28;20212;-62
2023/07/10 10:24:46;;;;;;;1.30;1.20;;;;;;;36.80;15.95;100549.91;5037365;28;20780;-64
2023/07/10 10:27:26;;;;;;;1.42;1.30;;;;;;;37.89;14.91;100538.06;5051920;28;20233;-61
2023/07/10 10:30:05;;;;;;;1.92;1.60;;;;;;;38.71;14.46;100550.56;5035212;28;20577;-63
2023/07/10 10:32:40;;;;;;;2.90;1.40;;;;;;;39.51;13.80;100540.63;5043026;28;20216;-62
2023/07/10 10:35:18;;;;;;;1.33;1.23;;;;;;;40.16;12.84;100539.47;5044703;28;20198;-62
2023/07/10 10:38:09;;;;;;;1.45;1.25;;;;;;;40.08;12.72;100537.75;5047029;28;21261;-61
2023/07/10 10:40:43;;;;;;;2.05;1.10;;;;;;;39.14;12.76;100529.06;5048340;28;20645;-62
2023/07/10 10:43:37;;;;;;;2.15;1.30;;;;;;;38.90;13.62;100528.41;5047183;28;20251;-62
2023/07/10 10:46:19;;;;;;;2.67;1.30;;;;;;;38.46;14.02;100514.19;5049904;28;20225;-63
2023/07/10 10:48:57;;;;;;;2.17;1.45;;;;;;;38.03;14.18;100524.78;5046334;28;20213;-63
2023/07/10 10:51:30;;;;;;;1.83;1.23;;;;;;;37.79;13.95;100515.91;5046877;28;20205;-62
2023/07/10 10:54:12;;;;;;;4.78;1.40;;;;;;;37.57;14.75;100524.88;5036650;28;20248;-65
2023/07/10 10:57:05;;;;;;;1.98;1.15;;;;;;;37.50;14.25;100521.25;5044563;28;20211;-64
2023/07/10 10:59:42;;;;;;;4.15;1.27;;;;;;;37.44;14.14;100515.56;5046211;28;20206;-62
2023/07/10 11:02:28;;;;;;;2.90;1.27;;;;;;;37.69;14.07;100508.09;5044034;28;20206;-65
2023/07/10 11:05:03;;;;;;;1.60;1.27;;;;;;;38.19;13.27;100503.06;5040709;28;20218;-63
2023/07/10 11:07:33;;;;;;;2.03;1.38;;;;;;;38.24;13.23;100497.94;5047633;28;20201;-62
2023/07/10 11:10:06;;;;;;;1.17;1.08;;;;;;;38.04;13.44;100496.84;5039152;28;20619;-64
2023/07/10 11:12:34;;;;;;;2.78;1.50;;;;;;;37.58;13.85;100491.59;5039073;28;20198;-63
2023/07/10 11:15:14;;;;;;;4.90;1.38;;;;;;;37.70;14.09;100492.81;5049764;28;20623;-63
2023/07/10 11:17:46;;;;;;;1.30;1.20;;;;;;;37.66;14.25;100491.50;5033417;28;20214;-63
2023/07/10 11:20:17;;;;;;;1.55;1.27;;;;;;;37.44;14.30;100485.97;5034594;28;20238;-62
2023/07/10 11:22:49;;;;;;;1.50;1.27;;;;;;;37.46;14.58;100483.97;5047064;28;20665;-62
2023/07/10 11:25:41;;;;;;;1.05;1.05;;;;;;;37.18;14.34;100469.38;5034957;28;20214;-63
2023/07/10 11:28:20;;;;;;;2.70;1.20;;;;;;;37.40;14.50;100468.53;5032597;28;20203;-64
2023/07/10 11:31:11;;;;;;;2.03;1.30;;;;;;;38.08;13.65;100460.47;5047670;28;20217;-62
2023/07/10 11:33:43;;;;;;;1.25;1.15;;;;;;;38.38;13.47;100447.84;5040841;28;20203;-62
2023/07/10 11:36:14;;;;;;;1.27;1.13;;;;;;;38.12;14.01;100453.69;5048681;28;20252;-63
2023/07/10 11:38:56;;;;;;;0.88;0.88;;;;;;;38.26;13.66;100452.84;5037353;28;20261;-63
2023/07/10 11:41:29;;;;;;;1.48;1.38;;;;;;;37.60;14.12;100457.28;5033812;28;20220;-65